Time;durP1;ratioP1;P1;durP2;ratioP2;P2;SDS_P1;SDS_P2;PMS_P1;PMS_P2;Temp;Humidity;BMP_temperature;BMP_pressure;BME280_temperature;BME280_humidity;BME280_pressure;Samples;Min_cycle;Max_cycle;Signal;HPM_P1;HPM_P2
2022/04/06 00:01:14;;;;;;;7.18;4.20;;;;;;;;;;5033784;28;20423;-63
2022/04/06 00:03:40;;;;;;;10.02;5.18;;;;;;;;;;5033095;28;20037;-62
2022/04/06 00:06:06;;;;;;;6.28;3.80;;;;;;;;;;5033587;28;20029;-63
2022/04/06 00:08:31;;;;;;;5.32;3.33;;;;;;;;;;5033783;28;20030;-60
2022/04/06 00:10:57;;;;;;;6.85;4.32;;;;;;;;;;5033684;28;20500;-62
2022/04/06 00:13:22;;;;;;;6.80;3.75;;;;;;;;;;5033315;28;20072;-63
2022/04/06 00:15:48;;;;;;;6.05;3.85;;;;;;;;;;5033284;28;20380;-61
2022/04/06 00:18:13;;;;;;;6.53;4.03;;;;;;;;;;5033242;28;20036;-61
2022/04/06 00:20:39;;;;;;;7.45;4.32;;;;;;;;;;5032824;28;20065;-61
2022/04/06 00:23:04;;;;;;;6.90;4.20;;;;;;;;;;5033133;28;20029;-61
2022/04/06 00:25:32;;;;;;;6.13;3.97;;;;;;;;;;5032882;28;20032;-61
2022/04/06 00:27:58;;;;;;;7.28;4.03;;;;;;;;;;5033137;28;20387;-61
2022/04/06 00:30:23;;;;;;;9.23;4.30;;;;;;;;;;5031011;28;20021;-61
2022/04/06 00:32:49;;;;;;;6.82;4.43;;;;;;;;;;5031882;28;20029;-62
2022/04/06 00:35:30;;;;;;;7.18;3.80;;;;;;;;;;5032711;28;20347;-62
2022/04/06 00:37:58;;;;;;;5.80;3.63;;;;;;;;;;5032962;28;20017;-63
2022/04/06 00:40:23;;;;;;;6.45;3.88;;;;;;;;;;5032829;28;20029;-63
2022/04/06 00:42:50;;;;;;;7.57;3.90;;;;;;;;;;5032641;28;20108;-62
2022/04/06 00:45:15;;;;;;;6.90;4.40;;;;;;;;;;5032677;28;20033;-62
2022/04/06 00:47:42;;;;;;;7.68;4.13;;;;;;;;;;5036445;28;20025;-62
2022/04/06 00:50:08;;;;;;;7.70;4.10;;;;;;;;;;5034285;28;20025;-63
2022/04/06 00:52:35;;;;;;;5.30;3.65;;;;;;;;;;5034531;28;20029;-62
2022/04/06 00:55:01;;;;;;;5.93;3.70;;;;;;;;;;5034956;28;20018;-62
2022/04/06 00:57:27;;;;;;;7.13;3.80;;;;;;;;;;5027589;28;20022;-63
2022/04/06 00:59:54;;;;;;;7.03;4.22;;;;;;;;;;5032209;28;20378;-63
2022/04/06 01:02:20;;;;;;;6.65;3.75;;;;;;;;;;5032235;28;20076;-63
2022/04/06 01:04:45;;;;;;;5.20;3.45;;;;;;;;;;5031851;28;20444;-62
2022/04/06 01:07:12;;;;;;;7.65;3.72;;;;;;;;;;5022555;28;20052;-63
2022/04/06 01:09:38;;;;;;;8.50;4.25;;;;;;;;;;5022892;28;20022;-62
2022/04/06 01:12:03;;;;;;;7.88;4.20;;;;;;;;;;5032073;28;20532;-61
2022/04/06 01:14:29;;;;;;;6.30;3.88;;;;;;;;;;5033165;28;20549;-62
2022/04/06 01:17:04;;;;;;;6.18;3.85;;;;;;;;;;5036326;28;20025;-63
2022/04/06 01:19:30;;;;;;;7.68;3.50;;;;;;;;;;5036120;28;20067;-63
2022/04/06 01:21:56;;;;;;;7.68;4.25;;;;;;;;;;5036715;28;20030;-63
2022/04/06 01:24:21;;;;;;;7.43;3.75;;;;;;;;;;5036521;28;20021;-63
2022/04/06 01:26:48;;;;;;;6.85;4.13;;;;;;;;;;5036615;28;20382;-63
2022/04/06 01:29:13;;;;;;;5.32;3.42;;;;;;;;;;5036476;28;20072;-62
2022/04/06 01:31:39;;;;;;;6.03;3.70;;;;;;;;;;5036449;28;20057;-63
2022/04/06 01:34:04;;;;;;;6.75;3.75;;;;;;;;;;5036119;28;20104;-62
2022/04/06 01:36:30;;;;;;;6.07;3.88;;;;;;;;;;5036397;28;20029;-61
2022/04/06 01:38:55;;;;;;;7.13;4.03;;;;;;;;;;5036480;28;20076;-63
2022/04/06 01:41:21;;;;;;;7.68;3.85;;;;;;;;;;5036077;28;20025;-62
2022/04/06 01:43:46;;;;;;;6.13;3.63;;;;;;;;;;5036196;28;20079;-62
2022/04/06 01:46:12;;;;;;;5.55;3.45;;;;;;;;;;5036232;28;20029;-63
2022/04/06 01:52:11;;;;;;;5.57;3.55;;;;;;;;;;5035894;28;20391;-63
2022/04/06 01:54:07;;;;;;;9.95;3.92;;;;;;;;;;5036116;28;20035;-62
2022/04/06 01:56:32;;;;;;;7.90;4.65;;;;;;;;;;5036287;28;20034;-63
2022/04/06 01:58:58;;;;;;;6.53;4.10;;;;;;;;;;5035883;28;20466;-63
2022/04/06 02:01:23;;;;;;;8.38;4.75;;;;;;;;;;5035726;28;20029;-63
2022/04/06 02:03:49;;;;;;;6.38;4.28;;;;;;;;;;5035651;28;20021;-63
2022/04/06 02:06:14;;;;;;;7.03;4.78;;;;;;;;;;5035717;28;20021;-63
2022/04/06 02:08:40;;;;;;;8.25;4.65;;;;;;;;;;5035877;28;20064;-63
2022/04/06 02:11:06;;;;;;;8.20;5.15;;;;;;;;;;5035665;28;20424;-62
2022/04/06 02:13:32;;;;;;;6.45;4.53;;;;;;;;;;5035641;28;20025;-63
2022/04/06 02:15:57;;;;;;;7.68;4.72;;;;;;;;;;5035545;28;20160;-63
2022/04/06 02:18:23;;;;;;;8.02;4.80;;;;;;;;;;5035135;28;20029;-62
2022/04/06 02:20:49;;;;;;;10.63;5.72;;;;;;;;;;5035545;28;20017;-62
2022/04/06 02:23:14;;;;;;;8.70;6.07;;;;;;;;;;5035358;28;20037;-63
2022/04/06 02:25:39;;;;;;;8.45;5.40;;;;;;;;;;5035039;28;20470;-62
2022/04/06 02:28:05;;;;;;;9.25;6.35;;;;;;;;;;5035359;28;20018;-63
2022/04/06 02:30:31;;;;;;;14.10;8.07;;;;;;;;;;5035020;28;20056;-61
2022/04/06 02:32:56;;;;;;;13.95;7.85;;;;;;;;;;5035297;28;20030;-62
2022/04/06 02:35:22;;;;;;;9.85;7.13;;;;;;;;;;5035460;28;20022;-63
2022/04/06 02:37:48;;;;;;;10.50;7.07;;;;;;;;;;5035252;28;20092;-62
2022/04/06 02:40:15;;;;;;;11.85;7.60;;;;;;;;;;5035201;28;20104;-62
2022/04/06 02:42:41;;;;;;;10.15;7.30;;;;;;;;;;5034999;28;20108;-61
2022/04/06 02:45:07;;;;;;;10.00;5.88;;;;;;;;;;5034865;28;20032;-63
2022/04/06 02:47:33;;;;;;;9.52;5.65;;;;;;;;;;5035174;28;20419;-62
2022/04/06 02:49:59;;;;;;;8.80;5.90;;;;;;;;;;5035025;28;20029;-62
2022/04/06 02:52:24;;;;;;;6.32;4.65;;;;;;;;;;5034964;28;20409;-62
2022/04/06 02:54:51;;;;;;;7.32;4.82;;;;;;;;;;5034744;28;20029;-62
2022/04/06 02:57:16;;;;;;;7.22;4.18;;;;;;;;;;5034952;28;20030;-63
2022/04/06 02:59:42;;;;;;;9.38;4.10;;;;;;;;;;5034562;28;20354;-63
2022/04/06 03:02:07;;;;;;;7.63;3.85;;;;;;;;;;5034812;28;20029;-63
2022/04/06 03:04:33;;;;;;;6.25;4.20;;;;;;;;;;5034710;28;20060;-63
2022/04/06 03:06:58;;;;;;;6.43;3.55;;;;;;;;;;5034542;28;20048;-62
2022/04/06 03:09:24;;;;;;;5.60;3.60;;;;;;;;;;5034814;28;20022;-64
2022/04/06 03:11:49;;;;;;;6.72;3.30;;;;;;;;;;5034665;28;20471;-63
2022/04/06 03:14:15;;;;;;;5.70;3.50;;;;;;;;;;5034206;28;20104;-63
2022/04/06 03:16:40;;;;;;;7.35;3.97;;;;;;;;;;5034563;28;20382;-63
2022/04/06 03:19:06;;;;;;;4.97;3.50;;;;;;;;;;5034037;28;20040;-63
2022/04/06 03:21:31;;;;;;;7.80;4.10;;;;;;;;;;5034357;28;20392;-63
2022/04/06 03:23:57;;;;;;;7.85;4.63;;;;;;;;;;5032946;28;20112;-63
2022/04/06 03:26:22;;;;;;;8.18;5.50;;;;;;;;;;5034298;28;20047;-63
2022/04/06 03:28:48;;;;;;;8.38;5.35;;;;;;;;;;5033976;28;20029;-63
2022/04/06 03:31:13;;;;;;;8.73;5.25;;;;;;;;;;5034052;28;20025;-63
2022/04/06 03:33:39;;;;;;;7.72;4.65;;;;;;;;;;5034101;28;20025;-63
2022/04/06 03:36:05;;;;;;;11.63;5.63;;;;;;;;;;5034139;28;20108;-62
2022/04/06 03:38:31;;;;;;;9.32;5.38;;;;;;;;;;5033245;28;20394;-62
2022/04/06 03:40:57;;;;;;;9.52;5.72;;;;;;;;;;5032761;28;20026;-62
2022/04/06 03:43:23;;;;;;;7.53;5.18;;;;;;;;;;5033731;28;20021;-64
2022/04/06 03:45:48;;;;;;;8.60;5.28;;;;;;;;;;5034058;28;20099;-63
2022/04/06 03:48:14;;;;;;;6.57;4.15;;;;;;;;;;5033921;28;20025;-63
2022/04/06 03:50:39;;;;;;;8.40;4.90;;;;;;;;;;5033914;28;20057;-62
2022/04/06 03:53:05;;;;;;;8.45;5.32;;;;;;;;;;5033703;28;20032;-61
2022/04/06 03:55:30;;;;;;;8.13;5.45;;;;;;;;;;5033637;28;20522;-62
2022/04/06 03:57:56;;;;;;;7.93;4.70;;;;;;;;;;5033420;28;20417;-63
2022/04/06 04:00:21;;;;;;;7.95;5.10;;;;;;;;;;5033716;28;20109;-63
2022/04/06 04:02:48;;;;;;;10.15;5.55;;;;;;;;;;5033485;28;20029;-64
2022/04/06 04:05:15;;;;;;;10.82;5.63;;;;;;;;;;5033752;28;20021;-63
2022/04/06 04:07:43;;;;;;;7.68;4.30;;;;;;;;;;5033533;28;20029;-63
2022/04/06 04:10:10;;;;;;;8.25;5.10;;;;;;;;;;5033460;28;20025;-63
2022/04/06 04:12:36;;;;;;;8.18;5.00;;;;;;;;;;5033426;28;20088;-63
2022/04/06 04:15:03;;;;;;;6.47;3.67;;;;;;;;;;5033364;28;20037;-63
2022/04/06 04:17:28;;;;;;;7.70;5.28;;;;;;;;;;5033501;28;20022;-63
2022/04/06 04:19:54;;;;;;;8.98;5.50;;;;;;;;;;5032959;28;20041;-63
2022/04/06 04:22:19;;;;;;;9.05;5.43;;;;;;;;;;5033184;28;20597;-63
2022/04/06 04:24:45;;;;;;;10.82;6.60;;;;;;;;;;5033188;28;20038;-63
2022/04/06 04:27:11;;;;;;;10.25;6.30;;;;;;;;;;5032938;28;20049;-63
2022/04/06 04:29:37;;;;;;;7.93;5.43;;;;;;;;;;5033104;28;20113;-63
2022/04/06 04:32:03;;;;;;;10.70;6.05;;;;;;;;;;5033037;28;20053;-62
2022/04/06 04:34:28;;;;;;;11.13;6.35;;;;;;;;;;5033123;28;20518;-63
2022/04/06 04:36:54;;;;;;;8.00;4.97;;;;;;;;;;5032948;28;20022;-64
2022/04/06 04:39:20;;;;;;;9.73;5.75;;;;;;;;;;5032969;28;20025;-63
2022/04/06 04:41:47;;;;;;;8.55;4.75;;;;;;;;;;5032689;28;20030;-64
2022/04/06 04:44:12;;;;;;;7.78;4.72;;;;;;;;;;5032704;28;20079;-63
2022/04/06 04:46:38;;;;;;;6.32;3.45;;;;;;;;;;5032876;28;20029;-63
2022/04/06 04:49:04;;;;;;;7.95;4.75;;;;;;;;;;5032725;28;20119;-62
2022/04/06 04:51:30;;;;;;;8.82;5.20;;;;;;;;;;5032870;28;20554;-62
2022/04/06 04:53:57;;;;;;;11.20;6.22;;;;;;;;;;5032643;28;20368;-63
2022/04/06 04:56:28;;;;;;;9.98;5.18;;;;;;;;;;5032477;28;20028;-61
2022/04/06 04:58:54;;;;;;;13.85;7.38;;;;;;;;;;5032727;28;20463;-63
2022/04/06 05:01:20;;;;;;;11.90;6.85;;;;;;;;;;5032754;28;20064;-63
2022/04/06 05:03:47;;;;;;;12.93;7.60;;;;;;;;;;5032618;28;20086;-63
2022/04/06 05:06:13;;;;;;;14.43;8.20;;;;;;;;;;5032592;28;20480;-63
2022/04/06 05:08:38;;;;;;;10.30;6.03;;;;;;;;;;5032560;28;20036;-63
2022/04/06 05:11:04;;;;;;;17.77;8.20;;;;;;;;;;5032314;28;20030;-61
2022/04/06 05:13:29;;;;;;;15.43;8.15;;;;;;;;;;5032499;28;20022;-62
2022/04/06 05:15:55;;;;;;;18.05;10.23;;;;;;;;;;5032549;28;20427;-62
2022/04/06 05:18:20;;;;;;;10.50;6.70;;;;;;;;;;5032268;28;20497;-63
2022/04/06 05:20:46;;;;;;;14.02;6.93;;;;;;;;;;5032234;28;20026;-63
2022/04/06 05:23:11;;;;;;;14.45;7.72;;;;;;;;;;5032231;28;20030;-62
2022/04/06 05:25:37;;;;;;;14.43;7.50;;;;;;;;;;5032088;28;20033;-61
2022/04/06 05:28:02;;;;;;;11.15;6.53;;;;;;;;;;5032253;28;20071;-62
2022/04/06 05:30:30;;;;;;;19.45;10.57;;;;;;;;;;5032079;28;20025;-62
2022/04/06 05:32:57;;;;;;;10.20;6.25;;;;;;;;;;5032173;28;20176;-61
2022/04/06 05:35:25;;;;;;;4.38;3.15;;;;;;;;;;5032433;28;20021;-61
2022/04/06 05:37:51;;;;;;;7.00;3.85;;;;;;;;;;5032344;28;20033;-62
2022/04/06 05:40:18;;;;;;;7.07;4.20;;;;;;;;;;5032063;28;20025;-63
2022/04/06 05:42:44;;;;;;;7.68;4.43;;;;;;;;;;5032121;28;20038;-62
2022/04/06 05:45:10;;;;;;;9.00;4.50;;;;;;;;;;5032259;28;20546;-61
2022/04/06 05:47:36;;;;;;;8.05;4.30;;;;;;;;;;5032197;28;20104;-62
2022/04/06 05:50:04;;;;;;;6.03;4.22;;;;;;;;;;5032258;28;20037;-61
2022/04/06 05:52:30;;;;;;;9.18;4.55;;;;;;;;;;5032288;28;20026;-61
2022/04/06 05:54:55;;;;;;;6.95;4.72;;;;;;;;;;5031799;28;20048;-62
2022/04/06 05:57:21;;;;;;;5.80;4.28;;;;;;;;;;5031792;28;20034;-61
2022/04/06 05:59:47;;;;;;;7.18;4.47;;;;;;;;;;5032039;28;20029;-61
2022/04/06 06:02:13;;;;;;;8.43;4.95;;;;;;;;;;5035715;28;20356;-62
2022/04/06 06:04:38;;;;;;;7.25;4.63;;;;;;;;;;5035751;28;20021;-62
2022/04/06 06:07:07;;;;;;;7.75;4.43;;;;;;;;;;5035707;28;20026;-63
2022/04/06 06:09:35;;;;;;;7.18;4.90;;;;;;;;;;5035332;28;20048;-62
2022/04/06 06:12:01;;;;;;;7.28;4.18;;;;;;;;;;5035642;28;20026;-63
2022/04/06 06:14:27;;;;;;;6.32;4.38;;;;;;;;;;5035594;28;20033;-62
2022/04/06 06:16:52;;;;;;;6.82;4.65;;;;;;;;;;5035467;28;20071;-62
2022/04/06 06:19:18;;;;;;;7.57;4.78;;;;;;;;;;5035115;28;20045;-62
2022/04/06 06:21:44;;;;;;;9.00;6.07;;;;;;;;;;5035445;28;20386;-61
2022/04/06 06:24:09;;;;;;;10.00;6.13;;;;;;;;;;5035208;28;20395;-61
2022/04/06 06:26:39;;;;;;;8.85;5.75;;;;;;;;;;5035475;28;20037;-62
2022/04/06 06:29:05;;;;;;;11.77;6.50;;;;;;;;;;5035319;28;20475;-61
2022/04/06 06:31:31;;;;;;;10.20;6.55;;;;;;;;;;5035178;28;20021;-61
2022/04/06 06:33:58;;;;;;;9.85;6.25;;;;;;;;;;5035207;28;20025;-63
2022/04/06 06:36:23;;;;;;;9.38;6.45;;;;;;;;;;5035158;28;20068;-62
2022/04/06 06:38:52;;;;;;;10.65;6.88;;;;;;;;;;5035067;28;20408;-62
2022/04/06 06:41:18;;;;;;;10.85;7.05;;;;;;;;;;5035100;28;20018;-61
2022/04/06 06:43:45;;;;;;;11.98;7.35;;;;;;;;;;5034880;28;20029;-61
2022/04/06 06:46:11;;;;;;;17.33;8.63;;;;;;;;;;5035039;28;20036;-61
2022/04/06 06:48:37;;;;;;;13.23;7.63;;;;;;;;;;5035017;28;20025;-61
2022/04/06 06:51:03;;;;;;;12.95;8.20;;;;;;;;;;5035065;28;20025;-61
2022/04/06 06:53:29;;;;;;;13.98;7.97;;;;;;;;;;5034689;28;20040;-62
2022/04/06 06:55:54;;;;;;;18.75;9.32;;;;;;;;;;5034786;28;20029;-63
2022/04/06 06:58:20;;;;;;;15.52;9.85;;;;;;;;;;5034793;28;20030;-62
2022/04/06 07:00:45;;;;;;;16.85;9.80;;;;;;;;;;5034675;28;20022;-62
2022/04/06 07:03:11;;;;;;;15.00;9.82;;;;;;;;;;5034492;28;20041;-62
2022/04/06 07:05:36;;;;;;;28.63;13.93;;;;;;;;;;5034426;28;20479;-62
2022/04/06 07:08:02;;;;;;;21.05;12.23;;;;;;;;;;5034726;28;20104;-63
2022/04/06 07:10:31;;;;;;;22.80;12.65;;;;;;;;;;5034747;28;20573;-63
2022/04/06 07:12:57;;;;;;;14.18;9.18;;;;;;;;;;5033180;28;20026;-63
2022/04/06 07:15:24;;;;;;;12.90;8.07;;;;;;;;;;5034472;28;20156;-63
2022/04/06 07:17:53;;;;;;;11.40;7.57;;;;;;;;;;5034378;28;20446;-64
2022/04/06 07:20:19;;;;;;;11.88;7.72;;;;;;;;;;5033540;28;20045;-63
2022/04/06 07:22:45;;;;;;;15.65;7.68;;;;;;;;;;5034197;28;20524;-63
2022/04/06 07:25:10;;;;;;;13.27;7.75;;;;;;;;;;5034318;28;20029;-62
2022/04/06 07:27:36;;;;;;;11.05;7.03;;;;;;;;;;5034185;28;20029;-62
2022/04/06 07:30:08;;;;;;;12.55;6.25;;;;;;;;;;5034269;28;20105;-63
2022/04/06 07:32:35;;;;;;;10.15;7.13;;;;;;;;;;5034187;28;20033;-63
2022/04/06 07:35:05;;;;;;;11.57;7.70;;;;;;;;;;5033746;28;20036;-62
2022/04/06 07:37:41;;;;;;;11.05;6.88;;;;;;;;;;5034244;28;20122;-63
2022/04/06 07:40:08;;;;;;;12.57;7.43;;;;;;;;;;5033903;28;20029;-63
2022/04/06 07:42:36;;;;;;;10.35;6.80;;;;;;;;;;5033852;28;20029;-64
2022/04/06 07:45:09;;;;;;;11.90;7.70;;;;;;;;;;5033725;28;20038;-62
2022/04/06 07:47:37;;;;;;;10.63;7.22;;;;;;;;;;5033757;28;20021;-62
2022/04/06 07:50:04;;;;;;;10.63;7.03;;;;;;;;;;5033682;28;20024;-61
2022/04/06 07:52:30;;;;;;;11.38;7.40;;;;;;;;;;5033636;28;20029;-63
2022/04/06 07:54:56;;;;;;;13.50;6.80;;;;;;;;;;5033538;28;20029;-63
2022/04/06 07:57:24;;;;;;;9.82;6.47;;;;;;;;;;5033707;28;20104;-63
2022/04/06 07:59:54;;;;;;;10.05;6.65;;;;;;;;;;5033582;28;20448;-63
2022/04/06 08:02:20;;;;;;;14.20;6.73;;;;;;;;;;5033504;28;20137;-62
2022/04/06 08:04:45;;;;;;;13.23;7.38;;;;;;;;;;5030799;28;20029;-61
2022/04/06 08:07:11;;;;;;;16.05;9.20;;;;;;;;;;5032957;28;20037;-62
2022/04/06 08:09:36;;;;;;;12.93;8.02;;;;;;;;;;5033386;28;20025;-63
2022/04/06 08:12:03;;;;;;;12.63;8.07;;;;;;;;;;5033358;28;20121;-63
2022/04/06 08:14:28;;;;;;;9.88;7.53;;;;;;;;;;5033237;28;20116;-62
2022/04/06 08:16:55;;;;;;;13.63;7.97;;;;;;;;;;5033158;28;20116;-62
2022/04/06 08:19:22;;;;;;;15.10;8.57;;;;;;;;;;5032426;28;20125;-62
2022/04/06 08:21:48;;;;;;;18.02;8.98;;;;;;;;;;5032914;28;20763;-61
2022/04/06 08:24:14;;;;;;;13.02;8.55;;;;;;;;;;5032516;28;20025;-61
2022/04/06 08:26:40;;;;;;;15.18;9.13;;;;;;;;;;5028060;28;20033;-60
2022/04/06 08:29:05;;;;;;;20.65;9.65;;;;;;;;;;5030238;28;20026;-60
2022/04/06 08:31:31;;;;;;;16.08;9.32;;;;;;;;;;5032629;28;20077;-61
2022/04/06 08:33:56;;;;;;;15.48;8.55;;;;;;;;;;5032878;28;20098;-61
2022/04/06 08:36:22;;;;;;;12.32;8.73;;;;;;;;;;5032719;28;20021;-60
2022/04/06 08:38:48;;;;;;;12.52;8.68;;;;;;;;;;5032797;28;20113;-59
2022/04/06 08:41:15;;;;;;;11.98;8.38;;;;;;;;;;5032664;28;20096;-60
2022/04/06 08:43:41;;;;;;;11.70;8.18;;;;;;;;;;5032758;28;20439;-60
2022/04/06 08:46:12;;;;;;;11.07;8.77;;;;;;;;;;5032521;28;20057;-62
2022/04/06 08:48:38;;;;;;;12.90;7.53;;;;;;;;;;5032360;28;20025;-60
2022/04/06 08:51:08;;;;;;;11.18;8.57;;;;;;;;;;5031182;28;20026;-60
2022/04/06 08:53:43;;;;;;;13.90;8.10;;;;;;;;;;5033548;28;20079;-60
2022/04/06 08:56:12;;;;;;;15.25;8.38;;;;;;;;;;5044020;28;20624;-61
2022/04/06 08:58:38;;;;;;;14.55;8.45;;;;;;;;;;5035441;28;20041;-61
2022/04/06 09:01:04;;;;;;;13.77;8.13;;;;;;;;;;5047885;28;20017;-62
2022/04/06 09:03:29;;;;;;;12.60;7.95;;;;;;;;;;5039558;28;20501;-61
2022/04/06 09:06:08;;;;;;;13.18;8.10;;;;;;;;;;5040994;28;20032;-61
2022/04/06 09:08:41;;;;;;;15.95;9.52;;;;;;;;;;5048541;28;20017;-62
2022/04/06 09:11:10;;;;;;;12.93;9.02;;;;;;;;;;5050802;28;20107;-61
2022/04/06 09:13:35;;;;;;;11.63;8.75;;;;;;;;;;5041315;28;20029;-61
2022/04/06 09:16:01;;;;;;;12.88;9.00;;;;;;;;;;5032138;28;20033;-60
2022/04/06 09:18:41;;;;;;;14.80;9.18;;;;;;;;;;5049651;28;20032;-61
2022/04/06 09:21:09;;;;;;;17.67;9.75;;;;;;;;;;5032082;28;20513;-61
2022/04/06 09:23:35;;;;;;;15.50;8.55;;;;;;;;;;5031924;28;20030;-61
2022/04/06 09:26:08;;;;;;;14.70;9.23;;;;;;;;;;5032188;28;20030;-61
2022/04/06 09:28:50;;;;;;;15.23;10.02;;;;;;;;;;5032341;28;20037;-61
2022/04/06 09:31:17;;;;;;;15.20;10.25;;;;;;;;;;5031840;28;20036;-61
2022/04/06 09:33:56;;;;;;;14.40;9.73;;;;;;;;;;5032129;28;20034;-62
2022/04/06 09:36:21;;;;;;;17.05;10.75;;;;;;;;;;5034528;28;20033;-62
2022/04/06 09:38:49;;;;;;;18.55;11.35;;;;;;;;;;5036173;28;20026;-62
2022/04/06 09:41:15;;;;;;;16.45;10.45;;;;;;;;;;5035939;28;20033;-61
2022/04/06 09:43:44;;;;;;;16.17;10.02;;;;;;;;;;5035817;28;20042;-63
2022/04/06 09:49:18;;;;;;;17.30;11.30;;;;;;;;;;5036132;28;20036;-62
2022/04/06 09:51:45;;;;;;;18.83;12.25;;;;;;;;;;5036022;28;20434;-63
2022/04/06 09:54:12;;;;;;;19.90;12.20;;;;;;;;;;5035704;28;20040;-62
2022/04/06 09:56:38;;;;;;;18.80;11.85;;;;;;;;;;5035652;28;20029;-63
2022/04/06 09:59:05;;;;;;;19.90;10.80;;;;;;;;;;5035552;28;20063;-63
2022/04/06 10:01:46;;;;;;;19.30;12.23;;;;;;;;;;5035535;28;20028;-63
2022/04/06 10:04:13;;;;;;;22.02;12.80;;;;;;;;;;5035538;28;20038;-62
2022/04/06 10:06:41;;;;;;;20.98;12.05;;;;;;;;;;5035440;28;20029;-63
2022/04/06 10:09:09;;;;;;;22.48;12.65;;;;;;;;;;5045961;28;20067;-63
2022/04/06 10:11:38;;;;;;;23.20;13.30;;;;;;;;;;5055219;28;20390;-63
2022/04/06 10:14:09;;;;;;;21.42;12.40;;;;;;;;;;5055701;28;20029;-62
2022/04/06 10:16:36;;;;;;;23.08;12.85;;;;;;;;;;5055215;28;20108;-61
2022/04/06 10:19:05;;;;;;;20.45;13.70;;;;;;;;;;5044277;28;20596;-62
2022/04/06 10:21:53;;;;;;;23.65;12.98;;;;;;;;;;5035290;28;20076;-62
2022/04/06 10:24:26;;;;;;;21.67;12.15;;;;;;;;;;5034925;28;20486;-62
2022/04/06 10:27:09;;;;;;;20.83;13.00;;;;;;;;;;5035219;28;20025;-62
2022/04/06 10:30:06;;;;;;;24.00;13.23;;;;;;;;;;5035115;28;20017;-62
2022/04/06 10:32:35;;;;;;;20.90;12.57;;;;;;;;;;5035026;28;20429;-63
2022/04/06 10:35:34;;;;;;;18.77;11.85;;;;;;;;;;5034876;28;20056;-61
2022/04/06 10:37:59;;;;;;;17.30;9.25;;;;;;;;;;5034579;28;20443;-61
2022/04/06 10:40:48;;;;;;;27.17;14.02;;;;;;;;;;5035201;28;20053;-61
2022/04/06 10:43:36;;;;;;;23.02;12.63;;;;;;;;;;5034403;28;20372;-61
2022/04/06 10:46:06;;;;;;;20.77;13.00;;;;;;;;;;5034521;28;20481;-62
2022/04/06 10:48:32;;;;;;;20.02;12.48;;;;;;;;;;5034809;28;20044;-61
2022/04/06 10:51:30;;;;;;;19.00;12.15;;;;;;;;;;5034745;28;20139;-61
2022/04/06 10:53:56;;;;;;;19.48;12.30;;;;;;;;;;5034575;28;20079;-63
2022/04/06 10:56:23;;;;;;;22.25;12.88;;;;;;;;;;5034549;28;20030;-62
2022/04/06 10:58:57;;;;;;;17.27;11.95;;;;;;;;;;5034731;28;20029;-62
2022/04/06 11:01:26;;;;;;;17.67;10.77;;;;;;;;;;5034555;28;20025;-61
2022/04/06 11:04:05;;;;;;;18.17;10.07;;;;;;;;;;5034359;28;20036;-62
2022/04/06 11:06:48;;;;;;;19.27;11.63;;;;;;;;;;5034497;28;20026;-61
2022/04/06 11:12:22;;;;;;;24.90;13.32;;;;;;;;;;5034590;28;20088;-62
2022/04/06 11:14:49;;;;;;;21.15;13.80;;;;;;;;;;5034470;28;20017;-63
2022/04/06 11:17:34;;;;;;;19.80;11.40;;;;;;;;;;5034109;28;20049;-62
2022/04/06 11:20:03;;;;;;;20.52;11.73;;;;;;;;;;5033760;28;20041;-62
2022/04/06 11:22:29;;;;;;;17.15;9.55;;;;;;;;;;5033989;28;20053;-62
2022/04/06 11:24:55;;;;;;;16.27;10.02;;;;;;;;;;5033779;28;20033;-61
2022/04/06 11:27:35;;;;;;;17.52;10.15;;;;;;;;;;5033901;28;20080;-62
2022/04/06 11:30:05;;;;;;;17.42;10.40;;;;;;;;;;5034179;28;20391;-62
2022/04/06 11:32:31;;;;;;;;;;;;;;;;;;5030029;28;20029;-63
2022/04/06 11:35:05;;;;;;;15.40;9.73;;;;;;;;;;5033414;28;19966;-61
2022/04/06 11:37:37;;;;;;;14.38;9.15;;;;;;;;;;5034094;28;20056;-62
2022/04/06 11:40:04;;;;;;;14.93;9.90;;;;;;;;;;5033887;28;20025;-62
2022/04/06 11:42:29;;;;;;;16.05;9.80;;;;;;;;;;5033773;28;20029;-61
2022/04/06 11:44:56;;;;;;;12.65;8.23;;;;;;;;;;5033448;28;20569;-62
2022/04/06 11:47:31;;;;;;;20.85;10.68;;;;;;;;;;5033944;28;20109;-61
2022/04/06 11:49:57;;;;;;;14.63;7.80;;;;;;;;;;5033124;28;20580;-61
2022/04/06 11:52:23;;;;;;;19.25;11.00;;;;;;;;;;5032975;28;20083;-61
2022/04/06 11:54:53;;;;;;;14.98;9.60;;;;;;;;;;5033460;28;20108;-63
2022/04/06 11:57:19;;;;;;;16.10;10.82;;;;;;;;;;5033047;28;20037;-63
2022/04/06 11:59:57;;;;;;;14.32;9.77;;;;;;;;;;5032765;28;20029;-61
2022/04/06 12:02:23;;;;;;;15.25;9.70;;;;;;;;;;5033260;28;20478;-62
2022/04/06 12:05:03;;;;;;;20.25;10.20;;;;;;;;;;5033506;28;20066;-61
2022/04/06 12:07:29;;;;;;;14.80;10.13;;;;;;;;;;5033265;28;20124;-62
2022/04/06 12:09:54;;;;;;;17.23;9.88;;;;;;;;;;5033078;28;20017;-61
2022/04/06 12:12:22;;;;;;;19.05;10.73;;;;;;;;;;5032900;28;20102;-62
2022/04/06 12:14:48;;;;;;;18.48;10.63;;;;;;;;;;5033197;28;20510;-61
2022/04/06 12:17:14;;;;;;;15.50;10.27;;;;;;;;;;5032927;28;20036;-62
2022/04/06 12:19:40;;;;;;;17.45;9.65;;;;;;;;;;5032485;28;20399;-62
2022/04/06 12:22:07;;;;;;;17.73;10.88;;;;;;;;;;5032732;28;20029;-62
2022/04/06 12:24:43;;;;;;;18.77;10.45;;;;;;;;;;5032829;28;20360;-62
2022/04/06 12:27:09;;;;;;;15.43;10.10;;;;;;;;;;5032107;28;20037;-63
2022/04/06 12:29:36;;;;;;;17.75;11.27;;;;;;;;;;5032849;28;20053;-62
2022/04/06 12:32:05;;;;;;;18.08;10.90;;;;;;;;;;5033039;28;20025;-62
2022/04/06 12:34:40;;;;;;;18.50;10.55;;;;;;;;;;5032773;28;20174;-63
2022/04/06 12:39:54;;;;;;;21.23;11.68;;;;;;;;;;5032659;28;20394;-63
2022/04/06 12:42:21;;;;;;;24.80;11.77;;;;;;;;;;5032519;28;20475;-62
2022/04/06 12:44:56;;;;;;;17.70;10.27;;;;;;;;;;5032585;28;20025;-63
2022/04/06 12:47:25;;;;;;;18.23;10.40;;;;;;;;;;5032575;28;20028;-63
2022/04/06 12:50:08;;;;;;;16.38;10.25;;;;;;;;;;5032316;28;20112;-63
2022/04/06 12:52:37;;;;;;;18.45;10.10;;;;;;;;;;5032700;28;20442;-62
2022/04/06 12:55:10;;;;;;;18.58;9.60;;;;;;;;;;5032027;28;20474;-62
2022/04/06 12:57:37;;;;;;;18.85;9.48;;;;;;;;;;5032431;28;20038;-62
2022/04/06 13:00:08;;;;;;;18.50;9.32;;;;;;;;;;5032344;28;20105;-63
2022/04/06 13:02:38;;;;;;;16.45;9.25;;;;;;;;;;5033315;28;20471;-62
2022/04/06 13:05:05;;;;;;;;;;;;;;;;;;5032716;28;20502;-63
2022/04/06 13:07:31;;;;;;;17.30;9.23;;;;;;;;;;5033095;28;20000;-62
2022/04/06 13:10:00;;;;;;;19.42;9.27;;;;;;;;;;5032669;28;20467;-62
2022/04/06 13:12:31;;;;;;;14.98;8.50;;;;;;;;;;5032645;28;20030;-63
2022/04/06 13:14:58;;;;;;;16.67;9.38;;;;;;;;;;5032644;28;20021;-62
2022/04/06 13:17:24;;;;;;;14.80;8.18;;;;;;;;;;5032660;28;20478;-62
2022/04/06 13:19:50;;;;;;;15.15;8.73;;;;;;;;;;5031980;28;20053;-62
2022/04/06 13:22:16;;;;;;;14.93;8.25;;;;;;;;;;5032272;28;20029;-61
2022/04/06 13:24:43;;;;;;;15.70;8.55;;;;;;;;;;5031891;28;20513;-62
2022/04/06 13:27:09;;;;;;;13.13;7.90;;;;;;;;;;5032057;28;20033;-61
2022/04/06 13:29:35;;;;;;;13.98;8.35;;;;;;;;;;5032300;28;20109;-62
2022/04/06 13:32:03;;;;;;;16.92;9.93;;;;;;;;;;5032129;28;20029;-61
2022/04/06 13:34:29;;;;;;;12.48;8.43;;;;;;;;;;5032146;28;20025;-62
2022/04/06 13:36:55;;;;;;;17.35;9.68;;;;;;;;;;5032295;28;20030;-62
2022/04/06 13:39:21;;;;;;;17.60;7.88;;;;;;;;;;5031851;28;20029;-61
2022/04/06 13:41:52;;;;;;;14.10;7.78;;;;;;;;;;5031959;28;20030;-61
2022/04/06 13:44:20;;;;;;;12.27;8.68;;;;;;;;;;5030843;28;20042;-63
2022/04/06 13:46:46;;;;;;;15.48;8.32;;;;;;;;;;5032535;28;20112;-62
2022/04/06 13:49:12;;;;;;;13.52;8.82;;;;;;;;;;5032112;28;20026;-63
2022/04/06 13:51:37;;;;;;;13.77;8.70;;;;;;;;;;5031836;28;20021;-63
2022/04/06 13:54:03;;;;;;;17.83;8.98;;;;;;;;;;5032083;28;20048;-63
2022/04/06 13:56:29;;;;;;;16.70;8.25;;;;;;;;;;5032142;28;20096;-63
2022/04/06 13:58:54;;;;;;;13.73;8.30;;;;;;;;;;5032003;28;20163;-63
2022/04/06 14:01:20;;;;;;;13.23;7.85;;;;;;;;;;5032067;28;20165;-63
2022/04/06 14:03:45;;;;;;;13.40;8.02;;;;;;;;;;5031850;28;20078;-62
2022/04/06 14:06:13;;;;;;;13.50;8.23;;;;;;;;;;5031721;28;20026;-61
2022/04/06 14:08:38;;;;;;;11.30;7.65;;;;;;;;;;5031881;28;20102;-64
2022/04/06 14:11:04;;;;;;;11.82;7.85;;;;;;;;;;5031849;28;20080;-63
2022/04/06 14:13:29;;;;;;;9.55;6.47;;;;;;;;;;5031727;28;20035;-62
2022/04/06 14:15:55;;;;;;;13.13;7.10;;;;;;;;;;5031917;28;20474;-63
2022/04/06 14:18:21;;;;;;;14.27;7.90;;;;;;;;;;5031829;28;20104;-62
2022/04/06 14:20:47;;;;;;;12.65;7.78;;;;;;;;;;5017738;28;20352;-63
2022/04/06 14:23:13;;;;;;;12.40;6.90;;;;;;;;;;5035138;28;20017;-63
2022/04/06 14:25:38;;;;;;;13.27;6.57;;;;;;;;;;5034100;28;20022;-61
2022/04/06 14:28:05;;;;;;;11.05;7.00;;;;;;;;;;5035345;28;20108;-62
2022/04/06 14:30:33;;;;;;;14.35;7.25;;;;;;;;;;5035241;28;20034;-61
2022/04/06 14:32:59;;;;;;;15.88;7.10;;;;;;;;;;5035163;28;20025;-62
2022/04/06 14:35:24;;;;;;;12.43;7.10;;;;;;;;;;5035070;28;20087;-62
2022/04/06 14:37:50;;;;;;;12.35;7.03;;;;;;;;;;5035099;28;20029;-61
2022/04/06 14:40:16;;;;;;;16.85;7.03;;;;;;;;;;5035165;28;20395;-62
2022/04/06 14:42:43;;;;;;;9.10;5.90;;;;;;;;;;5034898;28;20025;-61
2022/04/06 14:45:09;;;;;;;11.13;6.43;;;;;;;;;;5034841;28;20029;-62
2022/04/06 14:47:35;;;;;;;18.13;6.40;;;;;;;;;;5034879;28;20033;-61